Inicio METAR Ruta Wind Satelite

Informe Meteorológico

Fecha: 2020/09/22 22:29:12 Local
2020.09.23 03:29 UTC


Estado: VENCIDO
Operación:VFR
Apartado / Los Cedros, Colombia (SKLC) 07-49N 076-42W
2020.09.22 2300 UTC
Wind: Calm:0
Visibility: greater than 7 mile(s):0
Sky conditions: partly cloudy
Temperature: 86 F (30 C)
Heat index: 96.8 F (36.0 C):1
Dew Point: 77 F (25 C)
Relative Humidity: 74%
Pressure (altimeter): 29.75 in. Hg (1007 hPa)
ob: SKLC 222300Z 00000KT 9999 SCT020 30/25 A2975
cycle: 23

SKLC 222200Z 11006KT 9999 SCT025 31/25 A2974
SKLC 222100Z 12007KT 9999 SCT025 32/24 A2974
SKLC 222000Z 18008KT 9999 SCT025 32/24 A2975
SKLC 221900Z 00000KT 9999 SCT025 32/24 A2977
SKLC 221800Z 20006KT 9999 SCT025 32/24 A2981